Weather at Dubai International Airport

Public forecast

Using degrees Celsius for public forecast. Weather courtesy of forecast.io.

Current aviation weather report (METAR) for Dubai International Airport

Retrieved 2020/10/31 00:00 UTC (34 minutes ago):

OMDB 310000Z 13003KT CAVOK 24/20 Q1014 NOSIG

Aviation forecast (TAF) for Dubai International Airport

Retrieved 2020-10-31 00:00 UTC (34 minutes ago):

TAF OMDB 302300Z 3100/0106 12005KT CAVOK BECMG 3108/3110 33012KT BECMG 3114/3116 08005KT